Time;durP1;ratioP1;P1;durP2;ratioP2;P2;SDS_P1;SDS_P2;PMS_P1;PMS_P2;Temp;Humidity;BMP_temperature;BMP_pressure;BME280_temperature;BME280_humidity;BME280_pressure;Samples;Min_cycle;Max_cycle;Signal;HPM_P1;HPM_P2
2022/12/07 00:00:54;;;;;;;94.37;52.23;;;;;;;;;;4390633;32;20744;-82
2022/12/07 00:03:20;;;;;;;90.47;50.47;;;;;;;;;;4392043;32;20218;-84
2022/12/07 00:05:47;;;;;;;81.10;49.53;;;;;;;;;;4395162;32;20238;-85
2022/12/07 00:08:14;;;;;;;97.27;58.30;;;;;;;;;;4392702;32;20238;-80
2022/12/07 00:10:42;;;;;;;108.50;63.57;;;;;;;;;;4392048;32;20236;-81
2022/12/07 00:13:09;;;;;;;93.70;58.47;;;;;;;;;;4393163;32;20268;-79
2022/12/07 00:15:36;;;;;;;89.10;52.47;;;;;;;;;;4390302;32;20253;-79
2022/12/07 00:18:03;;;;;;;91.13;52.93;;;;;;;;;;4389132;32;20720;-85
2022/12/07 00:20:30;;;;;;;126.47;57.83;;;;;;;;;;4394241;32;20214;-80
2022/12/07 00:22:57;;;;;;;111.53;55.90;;;;;;;;;;4392155;32;20324;-81
2022/12/07 00:25:24;;;;;;;103.20;55.50;;;;;;;;;;4394413;32;20243;-88
2022/12/07 00:27:56;;;;;;;128.03;71.50;;;;;;;;;;4392045;32;20316;-80
2022/12/07 00:30:22;;;;;;;171.47;98.20;;;;;;;;;;4388815;32;20313;-88
2022/12/07 00:32:50;;;;;;;191.93;111.47;;;;;;;;;;4388716;32;20241;-78
2022/12/07 00:35:17;;;;;;;215.10;120.20;;;;;;;;;;4389318;32;20300;-82
2022/12/07 00:37:44;;;;;;;223.60;125.97;;;;;;;;;;4388719;32;20746;-79
2022/12/07 00:40:12;;;;;;;231.67;131.00;;;;;;;;;;4389548;32;20218;-88
2022/12/07 00:42:38;;;;;;;223.70;131.93;;;;;;;;;;4390041;32;20226;-79
2022/12/07 00:45:08;;;;;;;225.77;130.27;;;;;;;;;;4391304;32;20315;-78
2022/12/07 00:47:35;;;;;;;248.30;133.13;;;;;;;;;;4396713;32;20226;-80
2022/12/07 00:50:02;;;;;;;242.73;136.90;;;;;;;;;;4394736;32;20238;-85
2022/12/07 00:52:28;;;;;;;252.13;134.10;;;;;;;;;;4379419;32;20252;-81
2022/12/07 00:54:55;;;;;;;240.17;138.17;;;;;;;;;;4376910;32;20232;-82
2022/12/07 00:57:22;;;;;;;215.80;119.27;;;;;;;;;;4374175;32;20768;-82
2022/12/07 00:59:49;;;;;;;213.07;122.00;;;;;;;;;;4372770;32;20229;-80
2022/12/07 01:02:20;;;;;;;202.30;115.13;;;;;;;;;;4373204;32;20230;-80
2022/12/07 01:04:47;;;;;;;199.83;115.63;;;;;;;;;;4372956;32;20591;-81
2022/12/07 01:07:13;;;;;;;198.13;114.30;;;;;;;;;;4372696;32;20325;-82
2022/12/07 01:09:40;;;;;;;195.00;112.33;;;;;;;;;;4373105;32;20218;-78
2022/12/07 01:12:07;;;;;;;183.37;108.67;;;;;;;;;;4372949;32;20316;-82
2022/12/07 01:14:34;;;;;;;180.50;107.17;;;;;;;;;;4372517;32;20618;-85
2022/12/07 01:17:01;;;;;;;178.83;104.83;;;;;;;;;;4372655;32;20242;-83
2022/12/07 01:19:29;;;;;;;169.23;103.73;;;;;;;;;;4372408;32;20277;-79
2022/12/07 01:21:57;;;;;;;161.57;98.97;;;;;;;;;;4372330;32;20233;-86
2022/12/07 01:24:24;;;;;;;178.57;104.77;;;;;;;;;;4372902;32;20311;-85
2022/12/07 01:26:51;;;;;;;205.70;114.90;;;;;;;;;;4373301;32;20234;-79
2022/12/07 01:29:19;;;;;;;197.70;116.00;;;;;;;;;;4373463;32;20288;-83
2022/12/07 01:31:49;;;;;;;196.27;114.33;;;;;;;;;;4372527;32;20268;-79
2022/12/07 01:34:16;;;;;;;202.10;117.50;;;;;;;;;;4372977;32;20800;-79
2022/12/07 01:36:44;;;;;;;190.70;110.37;;;;;;;;;;4372926;32;20276;-83
2022/12/07 01:39:11;;;;;;;196.30;114.23;;;;;;;;;;4373928;32;20301;-79
2022/12/07 01:41:40;;;;;;;185.63;112.23;;;;;;;;;;4387824;32;20780;-80
2022/12/07 01:44:26;;;;;;;186.47;113.83;;;;;;;;;;4388249;32;20229;-85
2022/12/07 01:46:54;;;;;;;173.70;99.93;;;;;;;;;;4387666;32;20252;-82
2022/12/07 01:49:30;;;;;;;152.53;89.20;;;;;;;;;;4388142;32;20226;-81
2022/12/07 01:52:07;;;;;;;165.97;100.03;;;;;;;;;;4374606;32;20301;-79
2022/12/07 01:54:34;;;;;;;177.30;103.40;;;;;;;;;;4388206;32;20213;-79
2022/12/07 01:57:02;;;;;;;175.73;100.20;;;;;;;;;;4387768;32;20744;-82
2022/12/07 01:59:29;;;;;;;171.97;100.33;;;;;;;;;;4387337;32;20621;-80
2022/12/07 02:01:56;;;;;;;164.13;98.80;;;;;;;;;;4387527;32;20257;-85
2022/12/07 02:04:24;;;;;;;157.70;98.33;;;;;;;;;;4387875;32;20217;-82
2022/12/07 02:06:52;;;;;;;171.00;98.80;;;;;;;;;;4387272;32;20238;-79
2022/12/07 02:09:20;;;;;;;166.73;96.83;;;;;;;;;;4387342;32;20222;-80
2022/12/07 02:11:47;;;;;;;166.43;96.47;;;;;;;;;;4387572;32;20354;-81
2022/12/07 02:14:17;;;;;;;165.00;97.97;;;;;;;;;;4387342;32;20903;-80
2022/12/07 02:17:06;;;;;;;171.20;99.80;;;;;;;;;;4387627;32;20860;-79
2022/12/07 02:20:10;;;;;;;156.17;97.93;;;;;;;;;;4386654;32;20627;-84
2022/12/07 02:22:55;;;;;;;159.03;91.60;;;;;;;;;;4387458;32;20304;-79
2022/12/07 02:25:36;;;;;;;161.47;97.90;;;;;;;;;;4387581;32;20257;-79
2022/12/07 02:28:06;;;;;;;159.13;95.93;;;;;;;;;;4387985;32;20234;-80
2022/12/07 02:30:39;;;;;;;159.77;94.10;;;;;;;;;;4387227;32;20234;-83
2022/12/07 02:33:10;;;;;;;157.33;96.33;;;;;;;;;;4387158;32;20828;-82
2022/12/07 02:35:42;;;;;;;154.77;93.30;;;;;;;;;;4387854;32;20276;-80
2022/12/07 02:38:15;;;;;;;151.57;90.27;;;;;;;;;;4386732;32;20774;-79
2022/12/07 02:40:45;;;;;;;130.37;79.03;;;;;;;;;;4388576;32;20621;-80
2022/12/07 02:43:17;;;;;;;103.43;63.57;;;;;;;;;;4390392;32;20289;-81
2022/12/07 02:45:50;;;;;;;124.97;76.00;;;;;;;;;;4390349;32;20209;-79
2022/12/07 02:48:20;;;;;;;130.10;77.57;;;;;;;;;;4390537;32;20714;-83
2022/12/07 02:50:50;;;;;;;143.87;86.97;;;;;;;;;;4390502;32;20285;-79
2022/12/07 02:53:34;;;;;;;138.57;82.73;;;;;;;;;;4390286;32;20365;-79
2022/12/07 02:56:18;;;;;;;135.27;86.50;;;;;;;;;;4390338;32;20267;-79
2022/12/07 02:58:53;;;;;;;129.20;81.53;;;;;;;;;;4389948;32;20248;-79
2022/12/07 03:01:32;;;;;;;122.67;78.60;;;;;;;;;;4390654;32;20221;-79
2022/12/07 03:04:07;;;;;;;134.57;81.63;;;;;;;;;;4389723;32;20324;-79
2022/12/07 03:06:40;;;;;;;127.83;78.17;;;;;;;;;;4390680;32;20220;-83
2022/12/07 03:09:15;;;;;;;123.50;72.40;;;;;;;;;;4389799;32;20725;-88
2022/12/07 03:11:48;;;;;;;112.90;66.97;;;;;;;;;;4390501;32;20221;-82
2022/12/07 03:14:18;;;;;;;164.37;92.90;;;;;;;;;;4383470;32;20243;-79
2022/12/07 03:16:53;;;;;;;157.53;90.73;;;;;;;;;;4374590;32;20827;-79
2022/12/07 03:19:22;;;;;;;159.07;95.13;;;;;;;;;;4375164;32;20662;-87
2022/12/07 03:21:54;;;;;;;154.30;90.07;;;;;;;;;;4374404;32;20621;-82
2022/12/07 03:24:28;;;;;;;160.87;92.67;;;;;;;;;;4374390;32;20280;-79
2022/12/07 03:27:00;;;;;;;157.63;92.77;;;;;;;;;;4374978;32;20261;-83
2022/12/07 03:29:31;;;;;;;154.47;88.53;;;;;;;;;;4374539;32;20214;-82
2022/12/07 03:32:03;;;;;;;144.10;84.80;;;;;;;;;;4373457;32;20392;-86
2022/12/07 03:34:36;;;;;;;105.43;63.00;;;;;;;;;;4370495;32;20218;-81
2022/12/07 03:37:06;;;;;;;51.60;34.03;;;;;;;;;;4376142;32;20241;-85
2022/12/07 03:39:37;;;;;;;36.50;25.43;;;;;;;;;;4389749;32;20254;-83
2022/12/07 03:42:07;;;;;;;32.30;20.87;;;;;;;;;;4390079;32;20311;-81
2022/12/07 03:44:36;;;;;;;33.80;19.83;;;;;;;;;;4388998;32;20221;-87
2022/12/07 03:47:11;;;;;;;29.77;19.03;;;;;;;;;;4389486;32;20565;-82
2022/12/07 03:49:44;;;;;;;31.63;19.30;;;;;;;;;;4389258;32;20304;-81
2022/12/07 03:52:15;;;;;;;35.53;21.27;;;;;;;;;;4388471;32;20241;-81
2022/12/07 03:54:48;;;;;;;42.70;24.07;;;;;;;;;;4389476;32;20222;-81
2022/12/07 03:57:17;;;;;;;31.30;20.13;;;;;;;;;;4389467;32;20298;-80
2022/12/07 03:59:44;;;;;;;29.50;17.00;;;;;;;;;;4388931;32;20277;-82
2022/12/07 04:02:14;;;;;;;31.57;19.93;;;;;;;;;;4389636;32;20710;-83
2022/12/07 04:04:42;;;;;;;32.70;19.50;;;;;;;;;;4389283;32;20244;-81
2022/12/07 04:07:09;;;;;;;33.73;21.87;;;;;;;;;;4375654;32;20728;-84
2022/12/07 04:09:36;;;;;;;32.97;22.73;;;;;;;;;;4389470;32;20218;-81
2022/12/07 04:12:02;;;;;;;36.33;23.83;;;;;;;;;;4388349;32;20214;-79
2022/12/07 04:14:29;;;;;;;40.13;24.10;;;;;;;;;;4388801;32;20755;-84
2022/12/07 04:16:58;;;;;;;43.13;24.27;;;;;;;;;;4388870;32;20267;-81
2022/12/07 04:19:28;;;;;;;36.27;22.40;;;;;;;;;;4389004;32;20234;-82
2022/12/07 04:21:56;;;;;;;37.97;26.00;;;;;;;;;;4389273;32;20663;-80
2022/12/07 04:24:23;;;;;;;56.77;31.17;;;;;;;;;;4388933;32;20222;-80
2022/12/07 04:26:50;;;;;;;54.10;31.00;;;;;;;;;;4388973;32;20630;-79
2022/12/07 04:29:19;;;;;;;68.40;37.47;;;;;;;;;;4389204;32;20288;-87
2022/12/07 04:31:46;;;;;;;70.17;44.17;;;;;;;;;;4388958;32;20249;-82
2022/12/07 04:34:14;;;;;;;81.57;50.37;;;;;;;;;;4389863;32;20751;-79
2022/12/07 04:36:43;;;;;;;94.93;56.07;;;;;;;;;;4390873;32;20621;-80
2022/12/07 04:39:19;;;;;;;104.67;57.13;;;;;;;;;;4382929;32;20230;-81
2022/12/07 04:41:46;;;;;;;101.20;61.63;;;;;;;;;;4390295;32;20245;-81
2022/12/07 04:44:14;;;;;;;94.03;58.40;;;;;;;;;;4385406;32;20195;-85
2022/12/07 04:46:42;;;;;;;99.87;57.13;;;;;;;;;;4381165;32;20193;-81
2022/12/07 04:49:09;;;;;;;96.87;62.57;;;;;;;;;;4376208;32;20683;-79
2022/12/07 04:51:37;;;;;;;97.67;61.47;;;;;;;;;;4373537;32;20296;-84
2022/12/07 04:54:06;;;;;;;101.50;60.07;;;;;;;;;;4373335;32;20300;-79
2022/12/07 04:56:34;;;;;;;100.83;56.20;;;;;;;;;;4373419;32;20221;-82
2022/12/07 04:59:02;;;;;;;89.17;54.57;;;;;;;;;;4372805;32;20257;-84
2022/12/07 05:01:28;;;;;;;75.40;44.60;;;;;;;;;;4372954;32;20377;-79
2022/12/07 05:03:56;;;;;;;62.50;40.87;;;;;;;;;;4372730;32;20237;-82
2022/12/07 05:06:23;;;;;;;57.43;31.83;;;;;;;;;;4373016;32;20225;-79
2022/12/07 05:08:50;;;;;;;46.80;29.37;;;;;;;;;;4384893;32;20242;-79
2022/12/07 05:13:59;;;;;;;56.47;34.43;;;;;;;;;;4387281;32;20245;-80
2022/12/07 05:16:27;;;;;;;65.53;34.60;;;;;;;;;;4387930;32;20880;-88
2022/12/07 05:18:53;;;;;;;65.70;36.43;;;;;;;;;;4387879;32;20303;-79
2022/12/07 05:21:20;;;;;;;58.10;34.37;;;;;;;;;;4387800;32;20225;-82
2022/12/07 05:23:47;;;;;;;59.00;37.90;;;;;;;;;;4387886;32;20319;-81
2022/12/07 05:26:14;;;;;;;71.40;38.37;;;;;;;;;;4388182;32;20229;-86
2022/12/07 05:28:42;;;;;;;56.30;34.27;;;;;;;;;;4387635;32;20241;-84
2022/12/07 05:31:08;;;;;;;61.03;37.57;;;;;;;;;;4387855;32;20833;-81
2022/12/07 05:33:35;;;;;;;57.40;35.37;;;;;;;;;;4387592;32;20241;-79
2022/12/07 05:36:05;;;;;;;61.67;36.93;;;;;;;;;;4387467;32;20698;-79
2022/12/07 05:38:32;;;;;;;59.53;36.77;;;;;;;;;;4387343;32;20727;-85
2022/12/07 05:41:02;;;;;;;58.30;34.97;;;;;;;;;;4387989;32;20296;-79
2022/12/07 05:43:29;;;;;;;63.50;37.00;;;;;;;;;;4387112;32;20386;-79
2022/12/07 05:45:57;;;;;;;76.23;41.70;;;;;;;;;;4373330;32;20229;-84
2022/12/07 05:48:24;;;;;;;61.63;38.20;;;;;;;;;;4387360;32;20275;-85
2022/12/07 05:50:51;;;;;;;78.80;40.97;;;;;;;;;;4387200;32;20225;-82
2022/12/07 05:53:18;;;;;;;77.73;42.07;;;;;;;;;;4387595;32;20286;-82
2022/12/07 05:55:47;;;;;;;68.93;42.00;;;;;;;;;;4387626;32;20253;-80
2022/12/07 06:01:00;;;;;;;81.10;40.20;;;;;;;;;;4387027;32;20225;-82
2022/12/07 06:03:26;;;;;;;77.97;42.33;;;;;;;;;;4385775;32;20406;-86
2022/12/07 06:05:54;;;;;;;86.13;46.80;;;;;;;;;;4386561;32;20717;-85
2022/12/07 06:08:21;;;;;;;83.47;48.17;;;;;;;;;;4385993;32;20250;-80
2022/12/07 06:12:33;;;;;;;114.27;64.13;;;;;;;;;;4387244;32;20271;-79
2022/12/07 06:13:36;;;;;;;121.70;63.50;;;;;;;;;;4385486;32;20253;-79
2022/12/07 06:16:05;;;;;;;177.93;93.03;;;;;;;;;;4386396;32;20249;-84
2022/12/07 06:18:32;;;;;;;148.40;77.03;;;;;;;;;;4385912;32;20238;-80
2022/12/07 06:20:59;;;;;;;112.30;64.33;;;;;;;;;;4385616;32;20958;-84
2022/12/07 06:23:26;;;;;;;136.70;70.83;;;;;;;;;;4385916;32;20295;-78
2022/12/07 06:25:53;;;;;;;112.17;58.27;;;;;;;;;;4385696;32;20239;-80
2022/12/07 06:28:19;;;;;;;109.43;58.10;;;;;;;;;;4385504;32;20246;-83
2022/12/07 06:30:46;;;;;;;131.43;66.37;;;;;;;;;;4385983;32;20245;-83
2022/12/07 06:33:14;;;;;;;126.00;61.37;;;;;;;;;;4386538;32;20287;-79
2022/12/07 06:35:42;;;;;;;126.70;67.57;;;;;;;;;;4385508;32;20658;-83
2022/12/07 06:38:08;;;;;;;140.53;73.83;;;;;;;;;;4386850;32;20225;-80
2022/12/07 06:40:35;;;;;;;143.63;73.07;;;;;;;;;;4386053;32;20237;-79
2022/12/07 06:43:02;;;;;;;128.83;74.33;;;;;;;;;;4380636;32;20313;-79
2022/12/07 06:45:28;;;;;;;138.40;72.60;;;;;;;;;;4364312;32;20292;-80
2022/12/07 06:47:55;;;;;;;151.97;74.63;;;;;;;;;;4375359;32;20657;-81
2022/12/07 06:50:23;;;;;;;148.47;72.47;;;;;;;;;;4357071;32;20238;-81
2022/12/07 06:52:51;;;;;;;135.53;72.00;;;;;;;;;;4385399;32;20230;-83
2022/12/07 06:55:18;;;;;;;138.83;68.00;;;;;;;;;;4386081;32;20279;-80
2022/12/07 06:57:45;;;;;;;125.33;69.60;;;;;;;;;;4387297;32;20211;-80
2022/12/07 07:00:13;;;;;;;137.23;71.67;;;;;;;;;;4385910;32;20272;-80
2022/12/07 07:02:40;;;;;;;220.13;101.83;;;;;;;;;;4387107;32;20653;-87
2022/12/07 07:05:07;;;;;;;258.50;110.73;;;;;;;;;;4386356;32;20233;-86
2022/12/07 07:07:35;;;;;;;246.10;111.93;;;;;;;;;;4386249;32;20319;-81
2022/12/07 07:10:02;;;;;;;212.37;103.33;;;;;;;;;;4356918;32;20254;-83
2022/12/07 07:12:29;;;;;;;200.20;98.50;;;;;;;;;;4348410;32;20350;-85
2022/12/07 07:14:56;;;;;;;240.83;134.60;;;;;;;;;;4341103;33;20242;-87
2022/12/07 07:17:23;;;;;;;221.67;134.57;;;;;;;;;;4346712;32;20258;-84
2022/12/07 07:19:49;;;;;;;184.90;105.20;;;;;;;;;;4382068;32;20340;-80
2022/12/07 07:22:16;;;;;;;218.63;115.40;;;;;;;;;;4385569;32;20248;-81
2022/12/07 07:24:44;;;;;;;270.00;162.00;;;;;;;;;;4386000;32;20733;-80
2022/12/07 07:27:11;;;;;;;200.70;112.63;;;;;;;;;;4388099;32;20724;-81
2022/12/07 07:29:38;;;;;;;158.20;94.87;;;;;;;;;;4374010;32;20238;-78
2022/12/07 07:32:05;;;;;;;188.27;107.83;;;;;;;;;;4388171;32;20674;-82
2022/12/07 07:34:33;;;;;;;174.73;103.93;;;;;;;;;;4388360;32;20237;-84
2022/12/07 07:37:00;;;;;;;181.13;101.70;;;;;;;;;;4388113;32;20319;-85
2022/12/07 07:39:27;;;;;;;174.40;99.13;;;;;;;;;;4388476;32;20279;-84
2022/12/07 07:41:55;;;;;;;173.67;92.20;;;;;;;;;;4375250;32;20658;-88
2022/12/07 07:44:22;;;;;;;139.67;81.80;;;;;;;;;;4385708;32;20234;-84
2022/12/07 07:46:49;;;;;;;139.50;78.13;;;;;;;;;;4367516;32;20822;-83
2022/12/07 07:49:16;;;;;;;147.57;82.27;;;;;;;;;;4364306;32;20258;-83
2022/12/07 07:51:43;;;;;;;140.43;80.07;;;;;;;;;;4379113;32;20649;-83
2022/12/07 07:54:09;;;;;;;112.53;66.43;;;;;;;;;;4388819;32;20389;-83
2022/12/07 07:56:36;;;;;;;93.03;56.20;;;;;;;;;;4388990;32;20667;-85
2022/12/07 07:59:04;;;;;;;108.07;61.70;;;;;;;;;;4388443;32;20467;-82
2022/12/07 08:01:31;;;;;;;107.07;60.60;;;;;;;;;;4388654;32;20249;-82
2022/12/07 08:03:58;;;;;;;77.07;48.47;;;;;;;;;;4388662;32;20744;-82
2022/12/07 08:06:26;;;;;;;66.27;40.60;;;;;;;;;;4388396;32;20226;-87
2022/12/07 08:08:53;;;;;;;67.43;41.83;;;;;;;;;;4388886;32;20743;-82
2022/12/07 08:11:19;;;;;;;55.67;37.60;;;;;;;;;;4388740;32;20316;-86
2022/12/07 08:13:48;;;;;;;51.23;34.33;;;;;;;;;;4388085;32;20765;-84
2022/12/07 08:16:18;;;;;;;97.27;50.57;;;;;;;;;;4383732;32;20242;-84
2022/12/07 08:18:45;;;;;;;69.37;44.23;;;;;;;;;;4373089;32;20249;-84
2022/12/07 08:21:14;;;;;;;63.70;39.00;;;;;;;;;;4377665;32;20675;-83
2022/12/07 08:23:41;;;;;;;61.00;38.90;;;;;;;;;;4376930;32;20690;-82
2022/12/07 08:26:10;;;;;;;82.37;41.63;;;;;;;;;;4372818;32;20320;-84
2022/12/07 08:28:37;;;;;;;58.03;36.50;;;;;;;;;;4371650;32;20837;-81
2022/12/07 08:31:05;;;;;;;61.20;37.27;;;;;;;;;;4395148;32;20178;-85
2022/12/07 08:33:34;;;;;;;69.40;40.50;;;;;;;;;;4383686;32;20299;-81
2022/12/07 08:36:02;;;;;;;66.57;40.77;;;;;;;;;;4383239;32;20726;-83
2022/12/07 08:38:28;;;;;;;120.40;58.90;;;;;;;;;;4370396;32;20245;-81
2022/12/07 08:40:56;;;;;;;61.00;36.20;;;;;;;;;;4374138;32;20306;-83
2022/12/07 08:43:23;;;;;;;56.17;33.83;;;;;;;;;;4366509;32;20235;-82
2022/12/07 08:45:55;;;;;;;62.70;36.00;;;;;;;;;;4372570;32;20309;-81
2022/12/07 08:48:24;;;;;;;61.83;39.17;;;;;;;;;;4365953;32;20218;-83
2022/12/07 08:50:53;;;;;;;70.53;40.73;;;;;;;;;;4372231;32;20317;-80
2022/12/07 08:53:20;;;;;;;30.40;16.83;;;;;;;;;;4337899;32;318709;-83
2022/12/07 08:55:48;;;;;;;47.20;27.43;;;;;;;;;;4342971;33;20267;-82
2022/12/07 08:58:14;;;;;;;51.20;31.77;;;;;;;;;;4341193;32;20346;-83
2022/12/07 09:00:41;;;;;;;42.53;28.73;;;;;;;;;;4342188;33;20667;-83
2022/12/07 09:03:08;;;;;;;45.20;24.43;;;;;;;;;;4342565;33;20837;-83
2022/12/07 09:05:35;;;;;;;45.97;25.53;;;;;;;;;;4342691;33;20231;-85
2022/12/07 09:08:03;;;;;;;42.23;27.20;;;;;;;;;;4343528;32;20243;-81
2022/12/07 09:10:30;;;;;;;44.30;26.73;;;;;;;;;;4342971;32;20325;-81
2022/12/07 09:13:00;;;;;;;35.63;23.43;;;;;;;;;;4348638;32;20238;-83
2022/12/07 09:15:27;;;;;;;38.63;26.00;;;;;;;;;;4332916;32;318231;-82
2022/12/07 09:17:54;;;;;;;147.33;56.97;;;;;;;;;;4357353;32;20885;-83
2022/12/07 09:20:21;;;;;;;41.97;24.03;;;;;;;;;;4357043;32;20456;-82
2022/12/07 09:22:48;;;;;;;39.00;23.03;;;;;;;;;;4357361;32;20549;-81
2022/12/07 09:25:17;;;;;;;29.03;18.57;;;;;;;;;;4356755;32;20231;-83
2022/12/07 09:27:43;;;;;;;37.43;22.77;;;;;;;;;;4357467;32;20246;-84
2022/12/07 09:30:10;;;;;;;51.00;23.60;;;;;;;;;;4355669;32;20317;-85
2022/12/07 09:32:37;;;;;;;41.83;24.77;;;;;;;;;;4357298;32;20618;-81
2022/12/07 09:35:04;;;;;;;34.37;21.27;;;;;;;;;;4303310;32;323318;-82
2022/12/07 09:37:34;;;;;;;33.70;21.43;;;;;;;;;;4335393;32;319392;-85
2022/12/07 09:40:01;;;;;;;32.17;21.10;;;;;;;;;;4318971;32;319237;-83
2022/12/07 09:42:33;;;;;;;35.03;21.43;;;;;;;;;;4334524;32;318819;-84
2022/12/07 09:45:01;;;;;;;146.07;53.90;;;;;;;;;;4309205;32;320809;-82
2022/12/07 09:47:29;;;;;;;39.60;20.97;;;;;;;;;;4306162;32;321210;-83
2022/12/07 09:50:02;;;;;;;33.40;17.27;;;;;;;;;;4336028;32;319230;-81
2022/12/07 09:52:30;;;;;;;24.90;16.93;;;;;;;;;;4327435;32;319247;-82
2022/12/07 09:54:57;;;;;;;36.17;17.73;;;;;;;;;;4336861;32;319216;-82
2022/12/07 09:57:31;;;;;;;76.23;29.97;;;;;;;;;;4337798;32;319294;-85
2022/12/07 10:00:02;;;;;;;45.70;21.17;;;;;;;;;;4323251;32;419038;-83
2022/12/07 10:02:37;;;;;;;28.07;15.50;;;;;;;;;;4343699;32;330716;-81
2022/12/07 10:05:06;;;;;;;54.87;23.27;;;;;;;;;;4367505;32;318791;-81
2022/12/07 10:07:33;;;;;;;33.07;18.07;;;;;;;;;;4356981;32;318770;-85
2022/12/07 10:10:00;;;;;;;26.80;17.70;;;;;;;;;;4366687;32;319430;-82
2022/12/07 10:12:27;;;;;;;35.43;20.60;;;;;;;;;;4356854;32;343664;-82
2022/12/07 10:15:02;;;;;;;39.73;20.03;;;;;;;;;;4367385;32;319202;-84
2022/12/07 10:17:34;;;;;;;30.77;20.33;;;;;;;;;;4357795;32;319365;-82
2022/12/07 10:20:26;;;;;;;35.87;22.87;;;;;;;;;;4362283;32;319201;-82
2022/12/07 10:23:02;;;;;;;29.97;20.80;;;;;;;;;;4332408;32;421149;-81
2022/12/07 10:25:34;;;;;;;34.70;21.57;;;;;;;;;;4347248;32;338347;-80
2022/12/07 10:28:13;;;;;;;33.87;21.40;;;;;;;;;;4364097;32;318857;-81
2022/12/07 10:31:01;;;;;;;31.37;22.03;;;;;;;;;;4342758;32;319343;-84
2022/12/07 10:33:34;;;;;;;38.07;20.10;;;;;;;;;;4349295;32;319399;-80
2022/12/07 10:36:01;;;;;;;45.60;22.73;;;;;;;;;;4366772;32;319334;-80
2022/12/07 10:38:30;;;;;;;28.27;18.70;;;;;;;;;;4349431;32;319432;-84
2022/12/07 10:41:09;;;;;;;31.10;19.70;;;;;;;;;;4363783;32;319714;-80
2022/12/07 10:43:36;;;;;;;26.47;19.27;;;;;;;;;;4356397;32;318860;-82
2022/12/07 10:46:37;;;;;;;39.50;22.33;;;;;;;;;;4366168;32;319550;-83
2022/12/07 10:49:21;;;;;;;45.60;22.20;;;;;;;;;;4334415;32;420006;-82
2022/12/07 10:51:56;;;;;;;27.97;19.20;;;;;;;;;;4356231;32;318968;-84
2022/12/07 10:54:29;;;;;;;30.20;19.27;;;;;;;;;;4365443;32;318714;-82
2022/12/07 10:57:11;;;;;;;31.10;19.50;;;;;;;;;;4352805;32;419404;-81
2022/12/07 11:00:08;;;;;;;33.47;20.13;;;;;;;;;;4341093;32;319407;-84
2022/12/07 11:02:53;;;;;;;49.40;24.43;;;;;;;;;;4340462;32;319763;-83
2022/12/07 11:05:27;;;;;;;81.17;35.20;;;;;;;;;;4354734;32;319527;-82
2022/12/07 11:08:04;;;;;;;37.47;21.60;;;;;;;;;;4321995;32;419386;-85
2022/12/07 11:10:41;;;;;;;30.57;20.00;;;;;;;;;;4345307;32;319486;-81
2022/12/07 11:13:36;;;;;;;104.67;38.77;;;;;;;;;;4354035;32;319907;-85
2022/12/07 11:16:22;;;;;;;65.57;28.00;;;;;;;;;;4340222;32;420707;-82
2022/12/07 11:19:07;;;;;;;28.17;17.43;;;;;;;;;;4345033;32;319765;-82
2022/12/07 11:21:43;;;;;;;29.97;18.70;;;;;;;;;;4344973;32;319496;-83
2022/12/07 11:24:15;;;;;;;34.63;16.70;;;;;;;;;;4354442;32;319532;-83
2022/12/07 11:26:56;;;;;;;25.47;13.87;;;;;;;;;;4344487;32;319398;-80
2022/12/07 11:29:36;;;;;;;25.40;14.17;;;;;;;;;;4354623;32;318790;-80
2022/12/07 11:32:13;;;;;;;23.17;14.27;;;;;;;;;;4343697;32;421341;-86
2022/12/07 11:34:50;;;;;;;19.43;11.17;;;;;;;;;;4358487;32;319503;-80
2022/12/07 11:37:21;;;;;;;18.70;9.63;;;;;;;;;;4369381;32;319782;-82
2022/12/07 11:39:52;;;;;;;27.67;14.17;;;;;;;;;;4358619;32;317712;-85
2022/12/07 11:42:23;;;;;;;22.87;13.73;;;;;;;;;;4354451;32;318906;-80
2022/12/07 11:44:54;;;;;;;29.23;15.27;;;;;;;;;;4344566;32;319599;-85
2022/12/07 11:47:29;;;;;;;24.53;14.60;;;;;;;;;;4353715;32;319286;-85
2022/12/07 11:50:04;;;;;;;19.30;12.00;;;;;;;;;;4347860;32;418640;-82
2022/12/07 11:52:41;;;;;;;46.33;17.87;;;;;;;;;;4339853;32;318917;-81
2022/12/07 11:55:19;;;;;;;22.30;11.90;;;;;;;;;;4365179;32;319711;-84
2022/12/07 11:57:52;;;;;;;46.77;15.90;;;;;;;;;;4359587;32;318954;-81
2022/12/07 12:00:20;;;;;;;105.20;37.10;;;;;;;;;;4360260;32;319466;-85
2022/12/07 12:02:53;;;;;;;43.13;18.23;;;;;;;;;;4342798;32;320440;-82
2022/12/07 12:05:23;;;;;;;59.80;23.17;;;;;;;;;;4353063;32;319654;-82
2022/12/07 12:07:57;;;;;;;24.13;14.67;;;;;;;;;;4342859;32;330415;-82
2022/12/07 12:10:34;;;;;;;25.03;12.97;;;;;;;;;;4354336;32;319213;-82
2022/12/07 12:13:33;;;;;;;22.20;12.03;;;;;;;;;;4340722;32;418149;-83
2022/12/07 12:16:21;;;;;;;19.23;12.07;;;;;;;;;;4329280;32;419702;-82
2022/12/07 12:19:19;;;;;;;23.33;12.93;;;;;;;;;;4343187;32;318985;-85
2022/12/07 12:21:50;;;;;;;48.10;22.00;;;;;;;;;;4334682;32;319020;-86
2022/12/07 12:24:20;;;;;;;26.23;15.90;;;;;;;;;;4357689;32;318898;-80
2022/12/07 12:26:55;;;;;;;37.07;17.13;;;;;;;;;;4360899;32;318934;-84
2022/12/07 12:29:29;;;;;;;25.07;14.63;;;;;;;;;;4369907;32;318080;-81
2022/12/07 12:32:14;;;;;;;28.43;14.50;;;;;;;;;;4349145;32;417800;-83
2022/12/07 12:34:57;;;;;;;22.37;12.97;;;;;;;;;;4365541;32;319586;-83
2022/12/07 12:37:45;;;;;;;21.27;13.87;;;;;;;;;;4369573;32;318946;-81
2022/12/07 12:40:48;;;;;;;19.10;12.50;;;;;;;;;;4368489;32;420010;-81
2022/12/07 12:43:45;;;;;;;24.97;11.53;;;;;;;;;;4366289;32;420040;-81
2022/12/07 12:46:48;;;;;;;17.90;10.90;;;;;;;;;;4367142;32;419709;-84
2022/12/07 12:49:59;;;;;;;20.13;12.80;;;;;;;;;;4341024;32;417866;-82
2022/12/07 12:52:52;;;;;;;15.90;10.67;;;;;;;;;;4341010;32;419177;-82
2022/12/07 12:55:43;;;;;;;26.40;12.57;;;;;;;;;;4363916;32;319366;-84
2022/12/07 12:58:31;;;;;;;15.93;10.83;;;;;;;;;;4354833;32;419740;-81
2022/12/07 13:01:38;;;;;;;15.97;11.50;;;;;;;;;;4354758;32;419807;-83
2022/12/07 13:04:18;;;;;;;24.60;13.10;;;;;;;;;;4355759;32;420094;-82
2022/12/07 13:06:45;;;;;;;53.27;25.73;;;;;;;;;;4358642;32;319449;-83
2022/12/07 13:09:22;;;;;;;22.20;12.80;;;;;;;;;;4381322;32;318505;-82
2022/12/07 13:11:50;;;;;;;20.03;12.40;;;;;;;;;;4372435;32;319540;-83
2022/12/07 13:14:56;;;;;;;21.57;12.80;;;;;;;;;;4382771;32;318598;-83
2022/12/07 13:17:58;;;;;;;20.00;12.73;;;;;;;;;;4380464;32;418834;-80
2022/12/07 13:20:48;;;;;;;18.40;11.37;;;;;;;;;;4358647;32;419247;-83
2022/12/07 13:23:19;;;;;;;23.47;12.90;;;;;;;;;;4355625;32;419816;-82
2022/12/07 13:25:53;;;;;;;17.23;11.50;;;;;;;;;;4343180;32;319610;-81
2022/12/07 13:28:25;;;;;;;17.93;11.57;;;;;;;;;;4346245;32;319112;-81
2022/12/07 13:31:04;;;;;;;17.87;11.73;;;;;;;;;;4338134;32;421321;-81
2022/12/07 13:33:31;;;;;;;15.60;11.53;;;;;;;;;;4355809;32;341444;-81
2022/12/07 13:36:00;;;;;;;17.33;10.20;;;;;;;;;;4367008;32;318681;-82
2022/12/07 13:38:30;;;;;;;14.53;10.13;;;;;;;;;;4358156;32;319342;-84
2022/12/07 13:41:15;;;;;;;16.57;10.10;;;;;;;;;;4368880;32;318921;-82
2022/12/07 13:43:48;;;;;;;19.57;10.47;;;;;;;;;;4342477;32;318737;-82
2022/12/07 13:46:17;;;;;;;23.13;12.33;;;;;;;;;;4353469;32;318730;-84
2022/12/07 13:48:46;;;;;;;25.23;12.70;;;;;;;;;;4343358;32;319452;-80
2022/12/07 13:51:20;;;;;;;28.17;18.20;;;;;;;;;;4368409;32;323060;-81
2022/12/07 13:53:52;;;;;;;32.60;20.03;;;;;;;;;;4363886;32;319103;-82
2022/12/07 13:56:22;;;;;;;52.13;31.37;;;;;;;;;;4380520;32;319091;-80
2022/12/07 13:58:49;;;;;;;115.73;81.73;;;;;;;;;;4372161;32;319212;-81
2022/12/07 14:01:18;;;;;;;104.93;77.63;;;;;;;;;;4371320;32;358510;-85
2022/12/07 14:03:45;;;;;;;73.07;50.00;;;;;;;;;;4356731;32;320859;-83
2022/12/07 14:06:19;;;;;;;60.03;39.00;;;;;;;;;;4365734;32;318834;-83
2022/12/07 14:08:46;;;;;;;60.17;40.80;;;;;;;;;;4349637;32;319205;-82
2022/12/07 14:11:18;;;;;;;64.13;38.73;;;;;;;;;;4357404;32;318683;-82
2022/12/07 14:13:57;;;;;;;57.73;33.67;;;;;;;;;;4341897;32;319605;-83
2022/12/07 14:16:28;;;;;;;56.53;29.73;;;;;;;;;;4361555;32;318816;-85
2022/12/07 14:18:56;;;;;;;61.90;35.73;;;;;;;;;;4344730;32;419513;-83
2022/12/07 14:21:24;;;;;;;63.47;33.83;;;;;;;;;;4367484;32;319399;-82
2022/12/07 14:24:14;;;;;;;67.53;34.63;;;;;;;;;;4344471;32;421093;-87
2022/12/07 14:26:42;;;;;;;53.47;33.57;;;;;;;;;;4354980;32;319303;-84
2022/12/07 14:29:33;;;;;;;65.17;31.90;;;;;;;;;;4367367;32;319260;-88
2022/12/07 14:32:19;;;;;;;60.40;33.70;;;;;;;;;;4350555;32;420073;-84
2022/12/07 14:34:59;;;;;;;54.80;35.10;;;;;;;;;;4341546;32;318921;-85
2022/12/07 14:37:26;;;;;;;61.50;36.40;;;;;;;;;;4354744;32;319307;-84